Terminal Aerodrome Forecast
Issued by NWS

Home | Current Version | Previous Version | Text Only | Print | Product List | Glossary On
Versions: 1 2 3 4 5 6 7 8 9 10 11 12
000
FTUS46 KHNX 192320
TAFBFL
TAF
KBFL 192320Z 2000/2024 VRB04KT P6SM SKC
     FM200500 33009KT P6SM SCT050
     FM201000 29012KT P6SM BKN060 PROB30 2012/2016 6SM -RA OVC050
     FM201600 32012KT P6SM BKN050=

USA.gov is the U.S. government's official web portal to all federal, state and local government web resources and services.